Time;durP1;ratioP1;P1;durP2;ratioP2;P2;SDS_P1;SDS_P2;PMS_P1;PMS_P2;Temp;Humidity;BMP_temperature;BMP_pressure;BME280_temperature;BME280_humidity;BME280_pressure;Samples;Min_cycle;Max_cycle;Signal;HPM_P1;HPM_P2
2023/03/30 07:23:22;;;;;;;7.60;3.15;;;;;;;-145.79;87.81;77158.97;5311553;27;20761;-75
2023/03/30 07:25:53;;;;;;;7.97;3.42;;;;;;;-145.79;88.10;77156.84;5300146;28;20028;-78
2023/03/30 07:28:24;;;;;;;8.52;3.20;;;;;;;-145.79;87.46;77146.25;5301510;28;20024;-78
2023/03/30 07:31:04;;;;;;;9.90;3.70;;;;;;;-145.79;86.70;77122.94;5300922;28;20054;-80
2023/03/30 07:33:36;;;;;;;10.88;4.05;;;;;;;-145.79;85.85;77116.56;5300477;28;20031;-80
2023/03/30 07:36:07;;;;;;;10.55;2.78;;;;;;;-145.79;85.03;77114.44;5299596;28;20028;-79
2023/03/30 07:38:39;;;;;;;13.02;4.53;;;;;;;-145.79;85.14;77114.44;5279842;28;20025;-79
2023/03/30 07:41:13;;;;;;;12.23;4.55;;;;;;;-145.79;84.18;77108.09;5295413;28;20028;-79
2023/03/30 07:43:44;;;;;;;8.23;3.53;;;;;;;-145.79;83.99;77110.22;5300315;28;20032;-79
2023/03/30 07:46:15;;;;;;;4.40;2.63;;;;;;;-145.79;84.05;77116.56;5300394;28;20031;-79
2023/03/30 07:48:47;;;;;;;7.35;2.95;;;;;;;-145.79;84.10;77105.97;5299097;28;20042;-73
2023/03/30 07:51:18;;;;;;;7.22;2.92;;;;;;;-145.79;83.07;77101.72;5299903;28;20098;-74
2023/03/30 07:53:50;;;;;;;8.98;2.90;;;;;;;-145.79;82.84;77097.50;5293762;28;20045;-73
2023/03/30 07:56:21;;;;;;;7.20;2.63;;;;;;;-145.79;82.07;77097.50;5296156;28;20040;-74
2023/03/30 07:58:52;;;;;;;6.32;3.10;;;;;;;-145.79;82.69;77089.00;5298931;28;20024;-74
2023/03/30 08:01:24;;;;;;;9.90;2.90;;;;;;;-145.79;81.97;77089.00;5298897;28;20025;-75
2023/03/30 08:03:55;;;;;;;8.48;3.13;;;;;;;-145.79;82.08;77084.78;5299768;28;20024;-74
2023/03/30 08:06:28;;;;;;;11.15;3.67;;;;;;;-145.79;81.07;77086.91;5299765;28;20085;-73
2023/03/30 08:09:00;;;;;;;12.50;3.35;;;;;;;-145.79;80.80;77084.78;5298560;28;20589;-73
2023/03/30 08:11:33;;;;;;;7.85;3.38;;;;;;;-145.79;80.42;77067.81;5299577;28;20024;-73
2023/03/30 08:14:04;;;;;;;10.55;2.83;;;;;;;-145.79;79.06;77072.06;5298247;28;20036;-75
2023/03/30 08:16:36;;;;;;;9.32;3.22;;;;;;;-145.79;78.61;77072.06;5298125;28;20025;-75
2023/03/30 08:19:07;;;;;;;10.35;3.03;;;;;;;-145.79;76.77;77067.81;5298857;28;20040;-74
2023/03/30 08:21:38;;;;;;;6.72;3.08;;;;;;;-145.79;76.41;77067.81;5305777;28;20447;-74
2023/03/30 08:24:10;;;;;;;11.82;4.40;;;;;;;-145.79;75.77;77080.53;5319374;28;20020;-74
2023/03/30 08:26:42;;;;;;;13.43;4.97;;;;;;;-145.79;75.98;77078.41;5320081;28;20058;-74
2023/03/30 08:29:13;;;;;;;9.30;3.33;;;;;;;-145.79;75.60;77069.94;5310126;28;20067;-74
2023/03/30 08:31:45;;;;;;;10.68;3.45;;;;;;;-145.79;75.38;77067.81;5312147;28;20055;-75
2023/03/30 08:34:17;;;;;;;12.45;3.67;;;;;;;-145.79;72.82;77078.41;5308707;28;20027;-74
2023/03/30 08:36:48;;;;;;;12.85;3.83;;;;;;;-145.79;72.82;77076.31;5305240;28;20460;-75
2023/03/30 08:39:20;;;;;;;13.35;4.03;;;;;;;-145.79;73.18;77069.94;5305740;28;20028;-74
2023/03/30 08:42:04;;;;;;;9.25;3.47;;;;;;;-145.79;72.58;77067.81;5305717;28;20078;-71
2023/03/30 08:44:37;;;;;;;13.32;4.47;;;;;;;-145.79;72.34;77055.09;5304860;28;20502;-77
2023/03/30 08:47:13;;;;;;;12.52;3.72;;;;;;;-145.79;72.38;77057.22;5305352;28;20020;-76
2023/03/30 08:50:07;;;;;;;9.85;3.35;;;;;;;-145.79;72.40;77040.25;5304628;28;20121;-74
2023/03/30 08:52:40;;;;;;;12.15;3.58;;;;;;;-145.79;71.17;77042.38;5303598;28;20107;-75
2023/03/30 08:55:41;;;;;;;9.98;3.45;;;;;;;-145.79;71.25;77025.44;5305452;28;20031;-74
2023/03/30 08:58:30;;;;;;;9.45;3.25;;;;;;;-145.79;69.07;77025.44;5295643;28;20040;-73
2023/03/30 09:01:20;;;;;;;12.15;3.60;;;;;;;-145.79;68.39;77025.44;5304470;28;20479;-74
2023/03/30 09:04:00;;;;;;;10.30;3.17;;;;;;;-145.79;68.59;77012.72;5305342;28;20034;-77
2023/03/30 09:06:51;;;;;;;9.55;3.17;;;;;;;-145.79;68.39;77000.00;5304508;28;20370;-75
2023/03/30 09:09:27;;;;;;;10.30;4.00;;;;;;;-145.79;67.84;76997.88;5305241;28;20059;-73
2023/03/30 09:12:07;;;;;;;12.65;3.53;;;;;;;-145.79;67.23;77000.00;5304430;28;20024;-74
2023/03/30 09:14:43;;;;;;;10.00;3.65;;;;;;;-145.79;65.66;77006.34;5303730;28;20102;-73
2023/03/30 09:17:21;;;;;;;11.85;3.70;;;;;;;-145.79;65.86;77016.94;5304213;28;20035;-76
2023/03/30 09:19:57;;;;;;;11.38;3.83;;;;;;;-145.79;66.17;77016.94;5304181;28;20026;-75
2023/03/30 09:22:36;;;;;;;8.10;3.00;;;;;;;-145.79;64.84;77021.19;5304054;28;20413;-73
2023/03/30 09:25:34;;;;;;;14.60;5.45;;;;;;;-145.79;65.14;77042.38;5304835;28;20115;-76
2023/03/30 09:28:43;;;;;;;12.60;3.65;;;;;;;-145.79;64.98;77046.63;5287372;28;20044;-78
2023/03/30 09:31:39;;;;;;;8.73;3.65;;;;;;;-145.79;64.65;77042.38;5282261;28;20039;-74
2023/03/30 09:34:28;;;;;;;12.57;4.22;;;;;;;-145.79;64.71;77025.44;5281746;28;20032;-77
2023/03/30 09:37:10;;;;;;;10.45;4.25;;;;;;;-145.79;65.57;77006.34;5282588;28;20375;-73
2023/03/30 09:39:42;;;;;;;12.75;4.60;;;;;;;-145.79;64.44;76993.63;5294536;28;20031;-74
2023/03/30 09:42:35;;;;;;;16.17;5.32;;;;;;;-145.79;64.78;76991.53;5300870;28;20036;-77
2023/03/30 09:45:16;;;;;;;16.98;5.03;;;;;;;-145.79;64.46;77004.25;5281463;28;20028;-76
2023/03/30 09:47:47;;;;;;;15.85;5.00;;;;;;;-145.79;63.54;77000.00;5285729;28;20028;-72
2023/03/30 09:50:25;;;;;;;16.40;4.45;;;;;;;-145.79;63.93;76993.63;5295684;28;20459;-70
2023/03/30 09:53:08;;;;;;;14.73;4.45;;;;;;;-145.79;63.86;76993.63;5297346;28;20099;-72
2023/03/30 09:55:40;;;;;;;11.93;3.83;;;;;;;-145.79;63.46;76987.28;5303059;28;20023;-74
2023/03/30 09:58:17;;;;;;;10.95;4.18;;;;;;;-145.79;62.60;76991.53;5285721;28;20506;-73
2023/03/30 10:01:03;;;;;;;15.85;4.45;;;;;;;-145.79;62.73;76985.16;5281843;28;20081;-70
2023/03/30 10:03:34;;;;;;;13.27;5.35;;;;;;;-145.79;63.24;76987.28;5282331;28;20215;-68
2023/03/30 10:06:12;;;;;;;17.33;4.20;;;;;;;-145.79;63.26;76993.63;5287546;28;20126;-69
2023/03/30 10:08:54;;;;;;;9.27;4.28;;;;;;;-145.79;63.43;76991.53;5290203;28;20498;-69
2023/03/30 10:11:48;;;;;;;16.92;5.68;;;;;;;-145.79;62.77;77000.00;5292307;28;20040;-71
2023/03/30 10:14:32;;;;;;;11.80;4.50;;;;;;;-145.79;63.19;76991.53;5297156;28;20640;-71
2023/03/30 10:17:04;;;;;;;12.60;4.30;;;;;;;-145.79;62.90;77000.00;5294554;28;20046;-77
2023/03/30 10:19:40;;;;;;;13.60;4.53;;;;;;;-145.79;63.03;76993.63;5281990;28;20036;-73
2023/03/30 10:22:16;;;;;;;15.80;4.65;;;;;;;-145.79;62.82;76985.16;5291022;28;20047;-73
2023/03/30 10:24:54;;;;;;;12.93;4.70;;;;;;;-145.79;63.51;76991.53;5286545;28;20037;-74
2023/03/30 10:27:33;;;;;;;15.20;3.97;;;;;;;-145.79;63.41;76976.69;5287322;28;20097;-73
2023/03/30 10:30:09;;;;;;;13.25;4.88;;;;;;;-145.79;63.52;76961.84;5302389;28;20596;-74
2023/03/30 10:32:44;;;;;;;13.07;4.43;;;;;;;-145.79;61.85;76942.78;5303106;28;20071;-73
2023/03/30 10:35:37;;;;;;;13.48;4.22;;;;;;;-145.79;59.74;76955.50;5303077;28;20024;-73
2023/03/30 10:38:12;;;;;;;12.90;4.60;;;;;;;-145.79;59.71;76963.97;5302895;28;20495;-73
2023/03/30 10:40:44;;;;;;;18.53;4.40;;;;;;;-145.79;60.41;76961.84;5302905;28;20050;-72
2023/03/30 10:43:26;;;;;;;14.02;4.38;;;;;;;-145.79;61.18;76936.41;5302128;28;20301;-72
2023/03/30 10:46:06;;;;;;;12.68;4.20;;;;;;;-145.79;61.15;76930.06;5302668;28;20024;-71
2023/03/30 10:49:14;;;;;;;14.48;4.22;;;;;;;-145.79;60.04;76936.41;5303042;28;20428;-77
2023/03/30 10:51:56;;;;;;;12.35;4.03;;;;;;;-145.79;59.37;76947.00;5289957;28;20027;-71
2023/03/30 10:54:52;;;;;;;12.10;4.63;;;;;;;-145.79;59.36;76913.09;5302960;28;20020;-69
2023/03/30 10:57:36;;;;;;;10.25;4.10;;;;;;;-145.79;59.38;76915.22;5302125;28;20405;-71
2023/03/30 11:00:42;;;;;;;12.02;4.47;;;;;;;-145.79;58.99;76910.97;5303066;28;20130;-71
2023/03/30 11:03:31;;;;;;;11.13;3.97;;;;;;;-145.79;58.48;76902.50;5302633;28;20119;-69
2023/03/30 11:06:15;;;;;;;11.23;3.72;;;;;;;-145.79;59.29;76919.47;5301962;28;20422;-73
2023/03/30 11:08:50;;;;;;;10.38;3.75;;;;;;;-145.79;58.92;76923.69;5302658;28;20095;-69
2023/03/30 11:11:33;;;;;;;11.83;3.53;;;;;;;-145.79;59.36;76917.34;5301590;28;20039;-70
2023/03/30 11:14:10;;;;;;;10.00;3.90;;;;;;;-145.79;59.50;76902.50;5301865;28;20047;-72
2023/03/30 11:16:58;;;;;;;12.63;4.25;;;;;;;-145.79;59.35;76906.75;5285579;28;20032;-73
2023/03/30 11:19:48;;;;;;;12.38;3.65;;;;;;;-145.79;58.92;76919.47;5281176;28;20024;-73
2023/03/30 11:22:35;;;;;;;9.40;3.60;;;;;;;-145.79;58.89;76925.81;5299750;28;20498;-73
2023/03/30 11:25:19;;;;;;;13.93;4.40;;;;;;;-145.79;59.35;76921.59;5302257;28;20150;-73
2023/03/30 11:28:02;;;;;;;17.08;4.82;;;;;;;-145.79;59.51;76927.94;5302682;28;20028;-72
2023/03/30 11:30:35;;;;;;;11.73;3.50;;;;;;;-145.79;59.25;76927.94;5302800;28;20028;-71
2023/03/30 11:33:22;;;;;;;9.60;3.97;;;;;;;-145.79;59.80;76927.94;5288823;28;20036;-71
2023/03/30 11:36:09;;;;;;;9.35;3.70;;;;;;;-145.79;60.55;76936.41;5281667;28;20668;-71
2023/03/30 11:38:48;;;;;;;7.68;3.00;;;;;;;-145.79;60.62;76932.19;5294433;28;20020;-71
2023/03/30 11:41:41;;;;;;;13.15;4.78;;;;;;;-145.79;60.71;76932.19;5300903;28;20032;-69
2023/03/30 11:44:13;;;;;;;11.13;3.38;;;;;;;-145.79;60.39;76936.41;5297120;28;20364;-71
2023/03/30 11:47:03;;;;;;;10.77;4.95;;;;;;;-145.79;60.80;76930.06;5299905;28;20035;-69
2023/03/30 11:50:01;;;;;;;9.18;3.88;;;;;;;-145.79;60.84;76932.19;5286879;28;20054;-72
2023/03/30 11:53:16;;;;;;;9.25;4.00;;;;;;;-145.79;61.34;76934.28;5301909;28;20036;-70
2023/03/30 11:56:05;;;;;;;8.98;3.70;;;;;;;-145.79;62.20;76932.19;5286864;28;20047;-71
2023/03/30 11:58:55;;;;;;;12.57;3.88;;;;;;;-145.79;62.43;76925.81;5302502;28;20328;-70
2023/03/30 12:01:32;;;;;;;11.80;3.90;;;;;;;-145.79;62.14;76936.41;5301137;28;20363;-73
2023/03/30 12:04:13;;;;;;;14.73;4.03;;;;;;;-145.79;62.08;76940.66;5302343;28;20024;-71
2023/03/30 12:07:12;;;;;;;12.13;3.97;;;;;;;-145.79;61.83;76919.47;5292772;28;20028;-67
2023/03/30 12:09:53;;;;;;;11.70;4.43;;;;;;;-145.79;61.08;76894.03;5270279;28;20127;-71
2023/03/30 12:12:33;;;;;;;9.30;4.07;;;;;;;-145.79;60.32;76891.91;5295762;28;20039;-74
2023/03/30 12:15:07;;;;;;;9.50;3.47;;;;;;;-145.79;59.62;76898.25;5305448;28;20479;-74
2023/03/30 12:17:48;;;;;;;15.13;3.50;;;;;;;-145.79;57.44;76915.22;5306031;28;20066;-74
2023/03/30 12:20:48;;;;;;;11.10;2.95;;;;;;;-145.79;57.67;76898.25;5306169;28;20062;-72
2023/03/30 12:23:43;;;;;;;7.25;2.83;;;;;;;-145.79;57.42;76887.66;5261243;28;20122;-74
2023/03/30 12:26:24;;;;;;;10.32;3.97;;;;;;;-145.79;57.77;76870.72;5305324;28;20032;-74
2023/03/30 12:29:03;;;;;;;9.50;3.50;;;;;;;-145.79;57.12;76874.94;5304960;28;20031;-73
2023/03/30 12:32:04;;;;;;;8.90;2.88;;;;;;;-145.79;56.03;76885.56;5299537;28;20033;-72
2023/03/30 12:34:39;;;;;;;8.68;4.00;;;;;;;-145.79;56.90;76908.88;5284805;28;20356;-72
2023/03/30 12:37:34;;;;;;;10.02;3.42;;;;;;;-145.79;58.01;76919.47;5286369;28;20021;-74
2023/03/30 12:40:19;;;;;;;11.40;3.08;;;;;;;-145.79;58.29;76934.28;5305340;28;20055;-73
2023/03/30 12:43:21;;;;;;;11.97;5.07;;;;;;;-145.79;59.27;76923.69;5305115;28;20047;-73
2023/03/30 12:46:08;;;;;;;10.80;3.97;;;;;;;-145.79;58.60;76877.06;5304765;28;20190;-74
2023/03/30 12:48:55;;;;;;;11.90;3.53;;;;;;;-145.79;57.77;76849.53;5304551;28;20026;-73
2023/03/30 12:51:32;;;;;;;7.57;3.00;;;;;;;-145.79;56.27;76838.94;5305113;28;20077;-69
2023/03/30 12:54:16;;;;;;;11.65;3.60;;;;;;;-145.79;54.55;76817.72;5305446;28;20032;-70
2023/03/30 12:57:01;;;;;;;7.80;3.85;;;;;;;-145.79;53.74;76821.97;5304559;28;20031;-72
2023/03/30 13:00:20;;;;;;;7.65;3.22;;;;;;;-145.79;52.88;76809.25;5305101;28;20024;-72
2023/03/30 13:03:11;;;;;;;11.30;3.38;;;;;;;-145.79;51.88;76788.06;5292208;28;20028;-71
2023/03/30 13:05:44;;;;;;;7.65;3.13;;;;;;;-145.79;51.54;76777.47;5281360;28;20044;-71
2023/03/30 13:08:21;;;;;;;12.30;3.47;;;;;;;-145.79;51.33;76773.22;5296092;28;20055;-71
2023/03/30 13:11:17;;;;;;;8.82;3.00;;;;;;;-145.79;50.82;76783.81;5304272;28;20063;-72
2023/03/30 13:13:53;;;;;;;12.30;4.43;;;;;;;-145.79;51.11;76800.78;5283880;28;20024;-71
2023/03/30 13:17:06;;;;;;;10.93;3.30;;;;;;;-145.79;51.49;76792.31;5283503;28;20036;-70
2023/03/30 13:19:37;;;;;;;10.00;2.90;;;;;;;-145.79;51.09;76800.78;5287353;28;20024;-70
2023/03/30 13:22:11;;;;;;;8.70;2.80;;;;;;;-145.79;52.04;76811.38;5303239;28;20411;-70
2023/03/30 13:25:21;;;;;;;15.68;6.03;;;;;;;-145.79;51.96;76805.00;5302987;28;20051;-70
2023/03/30 13:27:57;;;;;;;10.60;3.83;;;;;;;-145.79;52.42;76766.88;5304209;28;20517;-70
2023/03/30 13:30:28;;;;;;;10.65;3.13;;;;;;;-145.79;52.25;76777.47;5299973;28;20039;-68
2023/03/30 13:33:18;;;;;;;12.88;3.70;;;;;;;-145.79;53.38;76781.69;5301634;28;20372;-69
2023/03/30 13:36:10;;;;;;;9.52;3.60;;;;;;;-145.79;52.07;76775.34;5303686;28;20665;-68
2023/03/30 13:39:02;;;;;;;9.25;3.53;;;;;;;-145.79;51.81;76758.38;5303469;28;20031;-71
2023/03/30 13:41:49;;;;;;;11.02;3.85;;;;;;;-145.79;51.69;76771.09;5301199;28;20074;-69
2023/03/30 13:44:54;;;;;;;11.57;3.30;;;;;;;-145.79;51.88;76773.22;5284297;28;20039;-70
2023/03/30 13:47:43;;;;;;;8.35;3.75;;;;;;;-145.79;51.95;76775.34;5264436;28;20025;-70
2023/03/30 13:50:22;;;;;;;15.75;3.97;;;;;;;-145.79;52.59;76792.31;5283071;28;20032;-70
2023/03/30 13:52:58;;;;;;;11.02;4.05;;;;;;;-145.79;53.47;76813.50;5282367;28;20020;-70
2023/03/30 13:55:32;;;;;;;13.52;4.90;;;;;;;-145.79;59.36;76877.06;5302948;28;20032;-72
2023/03/30 13:58:13;;;;;;;8.80;4.10;;;;;;;-145.79;61.27;76891.91;5287379;28;20325;-72
2023/03/30 14:00:48;;;;;;;13.23;4.47;;;;;;;-145.79;63.00;76915.22;5285368;28;20022;-70
2023/03/30 14:03:25;;;;;;;;;;;;;;;-145.79;63.41;76927.94;5302802;28;20036;-73
2023/03/30 14:06:01;;;;;;;10.77;3.78;;;;;;;-145.79;64.20;76949.13;5303523;28;19923;-75
2023/03/30 14:08:35;;;;;;;8.48;3.40;;;;;;;-145.79;63.48;76955.50;5302225;28;20028;-72
2023/03/30 14:11:21;;;;;;;7.57;2.20;;;;;;;-145.79;62.42;76972.44;5302776;28;20485;-71
2023/03/30 14:13:53;;;;;;;;;;;;;;;-145.79;62.05;76957.59;5285616;28;20028;-75
2023/03/30 14:16:35;;;;;;;11.65;8.73;;;;;;;-145.79;61.15;76944.91;5302762;28;19911;-72
2023/03/30 14:19:16;;;;;;;4.47;2.00;;;;;;;-145.79;60.61;76927.94;5302761;28;20379;-71
2023/03/30 14:21:51;;;;;;;5.82;2.00;;;;;;;-145.79;60.36;76902.50;5302604;28;20528;-72
2023/03/30 14:24:29;;;;;;;6.10;1.80;;;;;;;-145.79;60.25;76879.19;5303565;28;20040;-70
2023/03/30 14:27:12;;;;;;;4.70;2.05;;;;;;;-145.79;60.58;76872.84;5303291;28;20028;-70
2023/03/30 14:29:46;;;;;;;7.85;2.38;;;;;;;-145.79;61.15;76860.13;5285354;28;20032;-68
2023/03/30 14:32:23;;;;;;;6.38;2.33;;;;;;;-145.79;62.31;76877.06;5292751;28;20054;-70
2023/03/30 14:34:55;;;;;;;7.40;2.50;;;;;;;-145.79;62.47;76866.47;5281453;28;20041;-72
2023/03/30 14:37:29;;;;;;;9.52;2.70;;;;;;;-145.79;62.46;76855.88;5292425;28;20059;-70
2023/03/30 14:40:05;;;;;;;5.97;3.00;;;;;;;-145.79;63.27;76872.84;5302741;28;20077;-72
2023/03/30 14:42:38;;;;;;;;;;;;;;;-145.79;63.54;76862.25;5302639;28;20027;-72
2023/03/30 14:45:16;;;;;;;7.68;3.42;;;;;;;-145.79;64.85;76898.25;5303324;28;19911;-72
2023/03/30 14:47:48;;;;;;;8.73;2.78;;;;;;;-145.79;65.09;76898.25;5298529;28;20028;-71
2023/03/30 14:50:21;;;;;;;11.43;3.20;;;;;;;-145.79;65.28;76902.50;5290949;28;20078;-70
2023/03/30 14:52:53;;;;;;;8.93;3.92;;;;;;;-145.79;65.69;76898.25;5297880;28;20032;-71
2023/03/30 14:55:26;;;;;;;6.25;2.70;;;;;;;-145.79;65.88;76843.16;5298664;28;20120;-71
2023/03/30 14:57:58;;;;;;;10.10;2.72;;;;;;;-145.79;64.60;76855.88;5291386;28;20449;-71
2023/03/30 15:00:30;;;;;;;11.05;3.30;;;;;;;-145.79;64.66;76845.28;5296677;28;20027;-71
2023/03/30 15:03:03;;;;;;;6.25;2.65;;;;;;;-145.79;64.11;76832.56;5300579;28;20360;-71
2023/03/30 15:05:40;;;;;;;7.75;2.53;;;;;;;-145.79;64.09;76841.03;5281526;28;20082;-70
2023/03/30 15:08:20;;;;;;;7.10;3.08;;;;;;;-145.79;63.92;76847.41;5281785;28;20070;-70
2023/03/30 15:10:56;;;;;;;9.48;3.03;;;;;;;-145.79;64.71;76838.94;5283548;28;20124;-70
2023/03/30 15:13:46;;;;;;;6.30;3.20;;;;;;;-145.79;63.22;76811.38;5281988;28;20059;-71
2023/03/30 15:16:22;;;;;;;6.85;2.85;;;;;;;-145.79;62.71;76779.59;5281167;28;20472;-69
2023/03/30 15:19:03;;;;;;;8.77;3.58;;;;;;;-145.79;61.12;76745.69;5282971;28;20472;-70
2023/03/30 15:21:35;;;;;;;8.25;2.17;;;;;;;-145.79;59.18;76743.56;5289518;28;20048;-71
2023/03/30 15:24:11;;;;;;;6.10;2.30;;;;;;;-145.79;57.41;76737.19;5280898;28;20024;-70
2023/03/30 15:26:46;;;;;;;9.32;2.17;;;;;;;-145.79;57.33;76720.25;5297936;28;20103;-71
2023/03/30 15:29:19;;;;;;;4.95;2.22;;;;;;;-145.79;56.41;76720.25;5301363;28;20020;-69
2023/03/30 15:32:13;;;;;;;9.93;2.67;;;;;;;-145.79;56.10;76716.00;5300270;28;20020;-70
2023/03/30 15:35:05;;;;;;;8.40;2.53;;;;;;;-145.79;56.39;76739.31;5300674;28;20069;-72
2023/03/30 15:37:37;;;;;;;7.65;3.17;;;;;;;-145.79;56.03;76754.16;5299541;28;20024;-71
2023/03/30 15:40:34;;;;;;;8.07;2.22;;;;;;;-145.79;56.05;76756.28;5288549;28;20488;-71
2023/03/30 15:43:21;;;;;;;5.90;3.03;;;;;;;-145.79;56.88;76762.63;5283858;28;20391;-72
2023/03/30 15:46:00;;;;;;;5.90;2.47;;;;;;;-145.79;57.03;76766.88;5296101;28;20737;-72
2023/03/30 15:48:37;;;;;;;10.32;2.55;;;;;;;-145.79;56.43;76762.63;5286177;28;20039;-69
2023/03/30 15:51:31;;;;;;;6.25;2.13;;;;;;;-145.79;56.08;76779.59;5285318;28;20020;-73
2023/03/30 15:54:12;;;;;;;6.22;3.03;;;;;;;-145.79;56.07;76792.31;5300872;28;20028;-71
2023/03/30 15:56:51;;;;;;;8.85;3.25;;;;;;;-145.79;56.01;76790.19;5306579;28;20055;-70
2023/03/30 15:59:29;;;;;;;8.77;2.95;;;;;;;-145.79;56.42;76796.53;5299552;28;20040;-71
2023/03/30 16:02:19;;;;;;;6.80;2.20;;;;;;;-145.79;56.05;76800.78;5305627;28;20081;-70
2023/03/30 16:04:51;;;;;;;10.40;2.22;;;;;;;-145.79;56.51;76805.00;5291439;28;20059;-70
2023/03/30 16:07:24;;;;;;;10.25;2.95;;;;;;;-145.79;56.73;76819.84;5305731;28;20467;-70
2023/03/30 16:09:55;;;;;;;7.63;2.20;;;;;;;-145.79;56.99;76819.84;5303789;28;20060;-71
2023/03/30 16:12:28;;;;;;;6.30;2.53;;;;;;;-145.79;56.92;76813.50;5306403;28;20028;-75
2023/03/30 16:14:59;;;;;;;7.90;2.58;;;;;;;-145.79;57.11;76821.97;5305657;28;20024;-71
2023/03/30 16:17:32;;;;;;;9.60;2.75;;;;;;;-145.79;56.58;76821.97;5305371;28;20097;-71
2023/03/30 16:20:13;;;;;;;6.70;2.38;;;;;;;-145.79;56.82;76813.50;5306113;28;20069;-71
2023/03/30 16:22:46;;;;;;;10.18;2.55;;;;;;;-145.79;56.08;76800.78;5304933;28;20040;-71
2023/03/30 16:25:21;;;;;;;5.05;2.20;;;;;;;-145.79;54.82;76800.78;5305639;28;20111;-71
2023/03/30 16:27:53;;;;;;;6.47;2.45;;;;;;;-145.79;54.82;76811.38;5299284;28;20481;-71
2023/03/30 16:30:32;;;;;;;5.47;1.85;;;;;;;-145.79;56.07;76828.31;5284681;28;20029;-72
2023/03/30 16:33:04;;;;;;;5.45;2.47;;;;;;;-145.79;56.49;76845.28;5284639;28;20485;-69
2023/03/30 16:35:36;;;;;;;9.60;2.63;;;;;;;-145.79;57.48;76860.13;5284260;28;20028;-69
2023/03/30 16:38:13;;;;;;;5.50;1.60;;;;;;;-145.79;57.84;76862.25;5300117;28;20081;-71
2023/03/30 16:40:47;;;;;;;5.90;2.20;;;;;;;-145.79;58.13;76872.84;5287467;28;20032;-70
2023/03/30 16:43:18;;;;;;;4.90;2.40;;;;;;;-145.79;58.21;76872.84;5304879;28;20032;-70
2023/03/30 16:45:50;;;;;;;4.75;2.42;;;;;;;-145.79;58.26;76868.59;5292256;28;20032;-70
2023/03/30 16:48:23;;;;;;;6.05;1.95;;;;;;;-145.79;58.79;76877.06;5284994;28;20021;-70
2023/03/30 16:50:55;;;;;;;4.07;1.80;;;;;;;-145.79;58.86;76868.59;5284539;28;20013;-70
2023/03/30 16:53:27;;;;;;;6.05;2.35;;;;;;;-145.79;58.99;76874.94;5288393;28;20027;-71
